Terminal Aerodrome Forecast
Issued by NWS

Home | Current Version | Previous Version | Text Only | Print | Product List | Glossary On
Versions: 1 2 3 4 5 6 7 8 9 10 11 12 13 14
717
FTUS46 KSEW 291120
TAFOLM
TAF
KOLM 291120Z 2912/3012 00000KT 3SM BR BKN015
      TEMPO 2912/2916 1/2SM FG BKN002 OVC012
     FM291900 23006KT P6SM BKN020
     FM292200 23006KT P6SM SCT030=

USA.gov is the U.S. government's official web portal to all federal, state and local government web resources and services.